Time;durP1;ratioP1;P1;durP2;ratioP2;P2;SDS_P1;SDS_P2;PMS_P1;PMS_P2;Temp;Humidity;BMP_temperature;BMP_pressure;BME280_temperature;BME280_humidity;BME280_pressure;Samples;Min_cycle;Max_cycle;Signal;HPM_P1;HPM_P2
2023/02/26 00:01:14;;;;;;;5.95;2.00;;;1.00;1.00;;;;;;6160070;23;20565;-77
2023/02/26 00:03:41;;;;;;;5.57;1.83;;;1.00;1.00;;;;;;6160960;23;20214;-76
2023/02/26 00:06:11;;;;;;;6.03;1.90;;;1.00;1.00;;;;;;6162159;23;20211;-79
2023/02/26 00:08:38;;;;;;;8.20;4.47;;;1.00;1.00;;;;;;6160855;23;20215;-78
2023/02/26 00:11:07;;;;;;;7.60;2.78;;;1.00;1.00;;;;;;6163166;23;20210;-77
2023/02/26 00:13:36;;;;;;;5.90;1.80;;;1.00;1.00;;;;;;6160045;23;20257;-77
2023/02/26 00:16:13;;;;;;;6.30;1.88;;;1.00;1.00;;;;;;6159083;23;20218;-78
2023/02/26 00:18:41;;;;;;;5.75;2.10;;;1.00;1.00;;;;;;6160635;23;20557;-76
2023/02/26 00:21:14;;;;;;;5.47;1.95;;;1.00;1.00;;;;;;6160649;23;20215;-79
2023/02/26 00:23:42;;;;;;;6.18;1.75;;;1.00;1.00;;;;;;6161086;23;20273;-76
2023/02/26 00:26:10;;;;;;;6.22;2.30;;;1.10;1.00;;;;;;6133683;23;20219;-79
2023/02/26 00:28:40;;;;;;;7.93;2.55;;;1.00;1.00;;;;;;6161262;23;20293;-78
2023/02/26 00:31:09;;;;;;;5.30;1.60;;;1.00;1.00;;;;;;6159927;23;20249;-78
2023/02/26 00:33:39;;;;;;;6.65;2.00;;;1.00;1.00;;;;;;6148661;23;20223;-77
2023/02/26 00:36:20;;;;;;;10.40;2.10;;;1.10;1.00;;;;;;6162041;23;20622;-79
2023/02/26 00:38:58;;;;;;;6.25;1.75;;;1.00;1.00;;;;;;6150181;23;20279;-76
2023/02/26 00:41:26;;;;;;;6.47;2.00;;;1.00;1.00;;;;;;6160156;23;20214;-77
2023/02/26 00:43:56;;;;;;;7.15;1.60;;;1.10;1.00;;;;;;6162280;23;20218;-78
2023/02/26 00:46:35;;;;;;;8.73;1.95;;;1.00;1.00;;;;;;6156518;23;21026;-76
2023/02/26 00:49:13;;;;;;;6.38;1.98;;;1.00;1.00;;;;;;6159843;23;20218;-78
2023/02/26 00:51:47;;;;;;;5.88;1.10;;;1.00;1.00;;;;;;6160740;23;20242;-79
2023/02/26 00:54:20;;;;;;;5.65;1.13;;;1.10;1.00;;;;;;6160362;23;20298;-77
2023/02/26 00:56:47;;;;;;;6.20;1.60;;;1.00;1.00;;;;;;6160634;23;20215;-77
2023/02/26 00:59:14;;;;;;;5.13;1.30;;;1.10;1.00;;;;;;6160194;23;20222;-77
2023/02/26 01:01:44;;;;;;;5.82;1.40;;;1.10;1.00;;;;;;6158200;23;20218;-77
2023/02/26 01:04:13;;;;;;;6.70;2.30;;;1.10;1.00;;;;;;6156940;23;20214;-77
2023/02/26 01:06:43;;;;;;;6.97;1.70;;;1.10;1.00;;;;;;6132822;23;20229;-76
2023/02/26 01:09:21;;;;;;;5.97;1.63;;;1.20;1.00;;;;;;6157386;23;20211;-77
2023/02/26 01:11:49;;;;;;;5.18;1.88;;;1.20;1.00;;;;;;6160673;23;20222;-77
2023/02/26 01:14:17;;;;;;;7.00;2.33;;;1.10;1.00;;;;;;6158118;23;20313;-78
2023/02/26 01:16:53;;;;;;;6.28;2.05;;;1.20;1.00;;;;;;6159531;23;20207;-77
2023/02/26 01:19:30;;;;;;;5.50;1.40;;;1.10;1.00;;;;;;6152812;23;20641;-77
2023/02/26 01:22:04;;;;;;;6.18;1.50;;;1.20;1.00;;;;;;6157895;23;20210;-77
2023/02/26 01:24:34;;;;;;;5.55;1.35;;;1.20;1.00;;;;;;6160563;23;20217;-78
2023/02/26 01:27:03;;;;;;;5.40;1.40;;;1.30;1.00;;;;;;6160976;23;21036;-77
2023/02/26 01:29:32;;;;;;;5.97;1.50;;;1.30;1.00;;;;;;6156960;23;20219;-77
2023/02/26 01:32:07;;;;;;;6.32;1.30;;;1.20;1.00;;;;;;6161223;23;20219;-76
2023/02/26 01:34:41;;;;;;;8.02;1.55;;;1.20;1.00;;;;;;6156641;23;21671;-79
2023/02/26 01:37:21;;;;;;;7.60;1.55;;;1.30;1.00;;;;;;6159451;23;20830;-78
2023/02/26 01:40:02;;;;;;;6.07;1.60;;;1.30;1.00;;;;;;6132607;23;20218;-77
2023/02/26 01:42:36;;;;;;;6.55;1.33;;;1.30;1.00;;;;;;6158731;23;20313;-78
2023/02/26 01:45:10;;;;;;;9.27;3.63;;;1.20;1.00;;;;;;6157528;23;20565;-77
2023/02/26 01:47:45;;;;;;;6.00;1.60;;;1.20;1.00;;;;;;6156182;23;20968;-78
2023/02/26 01:50:15;;;;;;;5.45;1.40;;;1.30;1.00;;;;;;6159970;23;20234;-77
2023/02/26 01:53:15;;;;;;;5.28;1.20;;;1.30;1.00;;;;;;6160749;23;20281;-76
2023/02/26 01:55:44;;;;;;;7.15;1.55;;;1.30;1.00;;;;;;6143818;23;20286;-75
2023/02/26 01:58:12;;;;;;;5.68;1.38;;;1.30;1.00;;;;;;6158160;23;20245;-76
2023/02/26 02:00:40;;;;;;;6.63;1.20;;;1.40;1.00;;;;;;6137345;23;20222;-77
2023/02/26 02:03:09;;;;;;;6.80;1.50;;;1.40;1.00;;;;;;6139243;23;20214;-79
2023/02/26 02:05:43;;;;;;;6.55;1.55;;;1.40;1.00;;;;;;6159512;23;20237;-77
2023/02/26 02:08:12;;;;;;;7.55;2.80;;;1.40;1.00;;;;;;6158220;23;20999;-77
2023/02/26 02:10:43;;;;;;;6.60;1.63;;;1.40;1.00;;;;;;6160108;23;20270;-77
2023/02/26 02:13:25;;;;;;;5.30;1.75;;;1.40;1.00;;;;;;6159629;23;20222;-78
2023/02/26 02:15:59;;;;;;;7.43;1.60;;;1.40;1.00;;;;;;6159460;23;20217;-77
2023/02/26 02:18:38;;;;;;;6.38;1.30;;;1.40;1.00;;;;;;6158276;23;20206;-76
2023/02/26 02:21:25;;;;;;;6.20;1.60;;;1.40;1.00;;;;;;6119966;23;20266;-76
2023/02/26 02:23:59;;;;;;;5.78;1.35;;;1.40;1.00;;;;;;6149399;23;20289;-78
2023/02/26 02:26:55;;;;;;;6.82;1.67;;;1.50;1.00;;;;;;6133309;23;20300;-78
2023/02/26 02:29:50;;;;;;;6.57;1.50;;;1.40;1.00;;;;;;6145557;23;20253;-77
2023/02/26 02:32:22;;;;;;;6.05;1.40;;;1.50;1.00;;;;;;6158212;23;20261;-77
2023/02/26 02:34:55;;;;;;;5.05;1.50;;;1.40;1.00;;;;;;6159539;23;20211;-77
2023/02/26 02:37:27;;;;;;;7.45;1.60;;;1.40;1.00;;;;;;6159120;23;20300;-77
2023/02/26 02:39:57;;;;;;;6.88;1.70;;;1.40;1.00;;;;;;6157936;23;20266;-76
2023/02/26 02:42:30;;;;;;;6.55;1.30;;;1.40;1.00;;;;;;6160489;23;20263;-76
2023/02/26 02:45:04;;;;;;;6.60;1.13;;;1.40;1.00;;;;;;6158060;23;20215;-77
2023/02/26 02:47:39;;;;;;;6.35;1.48;;;1.40;1.00;;;;;;6158625;23;20215;-76
2023/02/26 02:50:12;;;;;;;6.13;1.70;;;1.50;1.00;;;;;;6161581;23;20214;-77
2023/02/26 02:52:48;;;;;;;6.65;1.63;;;1.50;1.00;;;;;;6160088;23;20218;-77
2023/02/26 02:55:19;;;;;;;5.20;1.20;;;1.50;1.00;;;;;;6160201;23;20290;-78
2023/02/26 02:57:50;;;;;;;5.82;1.55;;;1.50;1.00;;;;;;6159767;23;20225;-77
2023/02/26 03:00:21;;;;;;;5.22;1.35;;;1.40;1.00;;;;;;6158051;23;20218;-78
2023/02/26 03:02:57;;;;;;;6.40;1.50;;;1.40;1.00;;;;;;6138721;23;20726;-76
2023/02/26 03:05:25;;;;;;;8.02;1.70;;;1.40;1.00;;;;;;6146159;23;20218;-77
2023/02/26 03:07:56;;;;;;;6.00;1.70;;;1.40;1.00;;;;;;6161466;23;20215;-77
2023/02/26 03:10:23;;;;;;;5.40;1.25;;;1.40;1.00;;;;;;6160078;23;20609;-77
2023/02/26 03:12:51;;;;;;;5.05;1.15;;;1.30;1.00;;;;;;6159694;23;20219;-76
2023/02/26 03:15:26;;;;;;;6.25;1.83;;;1.30;1.00;;;;;;6158723;23;20241;-78
2023/02/26 03:18:00;;;;;;;8.05;2.15;;;1.30;1.00;;;;;;6160563;23;20277;-76
2023/02/26 03:20:32;;;;;;;6.68;1.17;;;1.30;1.00;;;;;;6158546;23;20242;-78
2023/02/26 03:23:09;;;;;;;6.25;1.33;;;1.30;1.00;;;;;;6161180;23;20222;-76
2023/02/26 03:25:47;;;;;;;6.22;1.25;;;1.30;1.00;;;;;;6159215;23;20210;-75
2023/02/26 03:28:20;;;;;;;5.82;1.23;;;1.20;1.00;;;;;;6159148;23;20261;-76
2023/02/26 03:30:56;;;;;;;8.48;1.50;;;1.20;1.00;;;;;;6160578;23;20457;-75
2023/02/26 03:33:31;;;;;;;8.73;1.55;;;1.20;1.00;;;;;;6160483;23;20222;-77
2023/02/26 03:36:03;;;;;;;5.13;1.10;;;1.20;1.00;;;;;;6161689;23;20214;-77
2023/02/26 03:38:36;;;;;;;7.10;1.70;;;1.20;1.00;;;;;;6159560;23;20223;-77
2023/02/26 03:41:08;;;;;;;6.78;2.05;;;1.20;1.00;;;;;;6163192;23;20223;-77
2023/02/26 03:43:38;;;;;;;7.15;1.90;;;1.30;1.00;;;;;;6160795;23;20329;-77
2023/02/26 03:46:14;;;;;;;8.07;1.50;;;1.30;1.00;;;;;;6159353;23;20219;-77
2023/02/26 03:48:45;;;;;;;5.32;1.00;;;1.30;1.00;;;;;;6162367;23;20241;-76
2023/02/26 03:51:14;;;;;;;7.28;1.48;;;1.30;1.00;;;;;;6162625;23;20691;-77
2023/02/26 03:53:48;;;;;;;5.57;1.38;;;1.30;1.00;;;;;;6162257;23;20214;-78
2023/02/26 03:56:19;;;;;;;5.78;1.40;;;1.30;1.00;;;;;;6161761;23;20323;-77
2023/02/26 03:58:46;;;;;;;5.22;1.45;;;1.40;1.00;;;;;;6160782;23;20219;-76
2023/02/26 04:01:20;;;;;;;6.53;1.60;;;1.30;1.00;;;;;;6161962;23;20290;-77
2023/02/26 04:03:53;;;;;;;6.25;1.50;;;1.30;1.00;;;;;;6161234;23;20997;-78
2023/02/26 04:06:22;;;;;;;5.65;1.50;;;1.30;1.00;;;;;;6143918;23;20215;-77
2023/02/26 04:08:50;;;;;;;6.28;1.40;;;1.30;1.00;;;;;;6136787;23;20211;-80
2023/02/26 04:11:20;;;;;;;6.60;1.45;;;1.30;1.00;;;;;;6142905;23;20214;-76
2023/02/26 04:13:48;;;;;;;6.95;1.83;;;1.30;1.00;;;;;;6129543;23;20223;-78
2023/02/26 04:16:16;;;;;;;6.65;1.80;;;1.40;1.00;;;;;;6129872;23;20290;-77
2023/02/26 04:18:44;;;;;;;5.63;1.40;;;1.40;1.00;;;;;;6129666;23;20215;-78
2023/02/26 04:21:13;;;;;;;5.75;1.45;;;1.30;1.00;;;;;;6131362;23;20547;-78
2023/02/26 04:23:41;;;;;;;7.93;1.80;;;1.30;1.00;;;;;;6129749;23;20219;-78
2023/02/26 04:26:08;;;;;;;5.63;1.40;;;1.30;1.00;;;;;;6132117;23;20231;-80
2023/02/26 04:28:36;;;;;;;6.85;1.80;;;1.40;1.00;;;;;;6132939;23;20962;-78
2023/02/26 04:31:05;;;;;;;5.10;0.90;;;1.40;1.00;;;;;;6134121;23;20215;-77
2023/02/26 04:33:33;;;;;;;7.85;2.13;;;1.40;1.00;;;;;;6130002;23;20220;-77
2023/02/26 04:36:00;;;;;;;5.57;1.50;;;1.40;1.00;;;;;;6131355;23;20227;-76
2023/02/26 04:38:29;;;;;;;5.22;1.20;;;1.40;1.00;;;;;;6131040;23;20215;-77
2023/02/26 04:40:56;;;;;;;6.07;1.15;;;1.40;1.00;;;;;;6134144;23;20211;-77
2023/02/26 04:43:23;;;;;;;6.72;1.63;;;1.40;1.00;;;;;;6132261;23;20251;-76
2023/02/26 04:45:50;;;;;;;6.65;1.40;;;1.40;1.00;;;;;;6132321;23;20217;-77
2023/02/26 04:48:18;;;;;;;6.05;1.48;;;1.40;1.00;;;;;;6131579;23;20244;-77
2023/02/26 04:50:46;;;;;;;5.80;1.30;;;1.40;1.00;;;;;;6132313;23;20231;-77
2023/02/26 04:53:13;;;;;;;6.10;1.25;;;1.40;1.00;;;;;;6132304;23;20247;-78
2023/02/26 04:55:42;;;;;;;6.50;2.20;;;1.40;1.00;;;;;;6134661;23;20215;-77
2023/02/26 04:58:09;;;;;;;6.72;1.50;;;1.40;1.00;;;;;;6130224;23;20215;-81
2023/02/26 05:00:36;;;;;;;6.28;1.83;;;1.40;1.00;;;;;;6135068;23;20268;-77
2023/02/26 05:03:04;;;;;;;6.25;1.60;;;1.50;1.00;;;;;;6131327;23;20299;-78
2023/02/26 05:05:31;;;;;;;5.60;1.65;;;1.50;1.00;;;;;;6130449;23;20473;-76
2023/02/26 05:07:58;;;;;;;7.05;1.30;;;1.50;1.00;;;;;;6132128;23;20286;-77
2023/02/26 05:10:26;;;;;;;5.95;1.70;;;1.50;1.00;;;;;;6130893;23;20235;-77
2023/02/26 05:12:54;;;;;;;5.95;1.23;;;1.50;1.00;;;;;;6147195;23;20233;-76
2023/02/26 05:15:21;;;;;;;5.32;1.30;;;1.50;1.00;;;;;;6160711;23;20234;-76
2023/02/26 05:17:48;;;;;;;6.47;1.52;;;1.50;1.00;;;;;;6161132;23;20214;-77
2023/02/26 05:20:15;;;;;;;7.50;1.20;;;1.50;1.00;;;;;;6161229;23;20309;-76
2023/02/26 05:22:42;;;;;;;7.55;1.30;;;1.60;1.00;;;;;;6163519;23;20211;-78
2023/02/26 05:25:12;;;;;;;6.95;1.00;;;1.60;1.00;;;;;;6160201;23;20936;-78
2023/02/26 05:27:41;;;;;;;6.22;1.90;;;1.50;1.00;;;;;;6158026;23;20226;-77
2023/02/26 05:30:14;;;;;;;5.72;1.30;;;1.50;1.00;;;;;;6158999;23;20221;-77
2023/02/26 05:32:43;;;;;;;5.53;1.20;;;1.50;1.00;;;;;;6158013;23;20278;-77
2023/02/26 05:35:11;;;;;;;5.50;1.33;;;1.60;1.00;;;;;;6117948;23;20215;-77
2023/02/26 05:37:38;;;;;;;6.47;1.48;;;1.60;1.00;;;;;;6161421;23;20218;-76
2023/02/26 05:40:10;;;;;;;5.95;1.30;;;1.60;1.00;;;;;;6163655;23;20215;-78
2023/02/26 05:42:38;;;;;;;6.25;1.33;;;1.60;1.00;;;;;;6160408;23;20214;-77
2023/02/26 05:45:10;;;;;;;7.00;1.73;;;1.60;1.00;;;;;;6158424;23;20215;-78
2023/02/26 05:47:38;;;;;;;8.85;1.30;;;1.60;1.00;;;;;;6160066;23;20942;-79
2023/02/26 05:50:09;;;;;;;7.75;1.30;;;1.60;1.00;;;;;;6161296;23;20285;-76
2023/02/26 05:52:36;;;;;;;7.35;1.67;;;1.60;1.00;;;;;;6107405;23;20332;-77
2023/02/26 05:55:04;;;;;;;5.30;1.20;;;1.60;1.00;;;;;;6158911;23;20307;-77
2023/02/26 05:57:34;;;;;;;6.15;1.27;;;1.60;1.00;;;;;;6158513;23;20277;-76
2023/02/26 06:00:03;;;;;;;5.47;1.42;;;1.70;1.00;;;;;;6159099;23;20318;-77
2023/02/26 06:02:31;;;;;;;7.53;1.20;;;1.70;1.00;;;;;;6160256;23;20227;-78
2023/02/26 06:04:58;;;;;;;5.20;1.10;;;1.70;1.00;;;;;;6157855;23;20219;-77
2023/02/26 06:07:25;;;;;;;6.40;0.95;;;1.70;1.00;;;;;;6158817;23;20238;-78
2023/02/26 06:09:52;;;;;;;6.30;1.40;;;1.60;1.00;;;;;;6159671;23;20210;-78
2023/02/26 06:12:19;;;;;;;5.15;1.27;;;1.60;1.00;;;;;;6160295;23;20218;-77
2023/02/26 06:14:48;;;;;;;6.25;1.27;;;1.60;1.00;;;;;;6158693;23;20214;-77
2023/02/26 06:17:16;;;;;;;7.78;1.10;;;1.70;1.00;;;;;;6158148;23;20215;-77
2023/02/26 06:19:46;;;;;;;6.10;1.50;;;1.60;1.00;;;;;;6156448;23;20246;-77
2023/02/26 06:22:13;;;;;;;6.90;1.80;;;1.60;1.00;;;;;;6156821;23;20226;-76
2023/02/26 06:24:40;;;;;;;5.50;1.15;;;1.60;1.00;;;;;;6160902;23;20265;-76
2023/02/26 06:27:07;;;;;;;5.05;1.17;;;1.70;1.00;;;;;;6159632;23;21031;-77
2023/02/26 06:29:36;;;;;;;7.18;1.00;;;1.60;1.00;;;;;;6159262;23;20896;-78
2023/02/26 06:32:03;;;;;;;5.20;1.30;;;1.60;1.00;;;;;;6129857;23;20278;-77
2023/02/26 06:34:30;;;;;;;6.07;1.35;;;1.70;1.00;;;;;;6160861;23;20248;-78
2023/02/26 06:36:59;;;;;;;5.53;1.20;;;1.60;1.00;;;;;;6159865;23;20219;-77
2023/02/26 06:39:28;;;;;;;5.57;1.10;;;1.60;1.00;;;;;;6161117;23;20225;-78
2023/02/26 06:41:57;;;;;;;5.53;1.25;;;1.40;1.00;;;;;;6163447;23;20310;-78
2023/02/26 06:44:24;;;;;;;5.32;1.17;;;1.50;1.00;;;;;;6162600;23;20214;-77
2023/02/26 06:46:51;;;;;;;5.60;1.20;;;1.50;1.00;;;;;;6161901;23;20257;-77
2023/02/26 06:49:20;;;;;;;4.80;0.98;;;1.50;1.00;;;;;;6163496;23;20685;-77
2023/02/26 06:51:47;;;;;;;6.85;1.50;;;1.50;1.00;;;;;;6162656;23;20934;-78
2023/02/26 06:54:16;;;;;;;5.15;1.35;;;1.60;1.00;;;;;;6161854;23;20266;-77
2023/02/26 06:56:43;;;;;;;5.13;0.98;;;1.60;1.00;;;;;;6161781;23;20303;-77
2023/02/26 06:59:10;;;;;;;5.65;1.40;;;1.70;1.00;;;;;;6161638;23;20226;-78
2023/02/26 07:01:38;;;;;;;7.07;1.30;;;1.70;1.00;;;;;;6154021;23;20731;-79
2023/02/26 07:04:05;;;;;;;4.95;1.23;;;1.70;1.00;;;;;;6161678;23;20214;-76
2023/02/26 07:06:31;;;;;;;7.15;2.30;;;1.70;1.00;;;;;;6161776;23;20250;-77
2023/02/26 07:08:59;;;;;;;6.22;1.27;;;1.80;1.00;;;;;;6161798;23;20214;-77
2023/02/26 07:11:27;;;;;;;5.22;1.42;;;1.90;1.00;;;;;;6158082;23;20214;-78
2023/02/26 07:13:55;;;;;;;5.10;1.23;;;2.00;1.00;;;;;;6161738;23;20541;-78
2023/02/26 07:16:22;;;;;;;6.03;1.50;;;2.10;1.00;;;;;;6159339;23;20218;-78
2023/02/26 07:18:49;;;;;;;7.55;2.00;;;2.20;1.00;;;;;;6161204;23;20959;-79
2023/02/26 07:21:16;;;;;;;5.22;1.10;;;2.30;1.00;;;;;;6160381;23;20227;-78
2023/02/26 07:23:43;;;;;;;6.25;1.50;;;2.50;1.00;;;;;;6162315;23;20207;-76
2023/02/26 07:26:10;;;;;;;45.13;28.70;;;2.60;1.00;;;;;;6163269;23;20214;-77
2023/02/26 07:28:39;;;;;;;10.15;3.20;;;2.60;1.00;;;;;;6160674;23;20211;-78
2023/02/26 07:31:06;;;;;;;5.40;1.40;;;2.70;1.00;;;;;;6161348;23;20210;-78
2023/02/26 07:33:33;;;;;;;7.15;1.90;;;2.80;1.00;;;;;;6163205;23;20254;-77
2023/02/26 07:36:01;;;;;;;6.57;1.67;;;2.80;1.00;;;;;;6160166;23;20232;-77
2023/02/26 07:38:28;;;;;;;6.70;1.30;;;2.70;1.00;;;;;;6161398;23;20211;-77
2023/02/26 07:40:56;;;;;;;6.88;1.83;;;2.60;1.00;;;;;;6163870;23;20305;-77
2023/02/26 07:43:24;;;;;;;7.43;1.83;;;2.60;1.00;;;;;;6157584;23;20218;-77
2023/02/26 07:45:53;;;;;;;6.18;1.45;;;2.50;1.00;;;;;;6160309;23;20239;-77
2023/02/26 07:48:20;;;;;;;6.15;1.48;;;2.60;1.00;;;;;;6133837;23;20879;-79
2023/02/26 07:50:48;;;;;;;7.82;1.73;;;2.80;1.00;;;;;;6156058;23;20870;-78
2023/02/26 07:53:15;;;;;;;6.88;1.25;;;2.90;1.00;;;;;;6161872;23;20219;-77
2023/02/26 07:55:42;;;;;;;5.30;1.20;;;3.10;1.00;;;;;;6165703;23;20768;-83
2023/02/26 07:58:09;;;;;;;7.43;1.52;;;3.20;1.00;;;;;;6167323;23;20948;-83
2023/02/26 08:00:39;;;;;;;6.43;1.75;;;3.30;1.00;;;;;;6163971;23;20211;-82
2023/02/26 08:03:08;;;;;;;7.20;1.40;;;3.30;1.00;;;;;;6164309;23;20301;-83
2023/02/26 08:05:38;;;;;;;10.65;1.65;;;3.30;1.00;;;;;;6132239;23;20251;-82
2023/02/26 08:08:05;;;;;;;6.15;1.25;;;3.30;1.00;;;;;;6159777;23;20234;-81
2023/02/26 08:10:32;;;;;;;6.15;1.30;;;3.20;1.00;;;;;;6163214;23;20215;-81
2023/02/26 08:12:59;;;;;;;7.28;3.70;;;3.10;1.00;;;;;;6139227;23;20219;-83
2023/02/26 08:15:26;;;;;;;9.75;2.67;;;3.20;1.00;;;;;;6164144;23;20222;-83
2023/02/26 08:17:53;;;;;;;5.78;1.40;;;3.20;1.00;;;;;;6165406;23;20226;-81
2023/02/26 08:20:22;;;;;;;7.13;1.30;;;3.20;1.00;;;;;;6165746;23;20215;-83
2023/02/26 08:22:51;;;;;;;5.63;1.40;;;3.20;1.00;;;;;;6163947;23;20214;-84
2023/02/26 08:25:18;;;;;;;7.65;2.03;;;3.30;1.00;;;;;;6163976;23;20211;-83
2023/02/26 08:27:45;;;;;;;6.65;2.28;;;3.30;1.00;;;;;;6169890;23;20219;-82
2023/02/26 08:30:14;;;;;;;5.38;1.23;;;3.40;1.00;;;;;;6166357;23;20219;-81
2023/02/26 08:32:44;;;;;;;8.45;1.48;;;3.50;1.00;;;;;;6165509;23;20269;-80
2023/02/26 08:35:14;;;;;;;6.80;1.50;;;3.60;1.00;;;;;;6139478;23;20226;-81
2023/02/26 08:37:42;;;;;;;7.95;1.70;;;3.60;1.00;;;;;;6167601;23;20226;-82
2023/02/26 08:40:17;;;;;;;8.95;1.60;;;3.80;1.00;;;;;;6167777;23;20215;-84
2023/02/26 08:42:44;;;;;;;5.78;1.63;;;3.90;1.00;;;;;;6169769;23;20214;-84
2023/02/26 08:45:11;;;;;;;6.65;1.63;;;4.00;1.00;;;;;;6169586;23;20214;-82
2023/02/26 08:47:42;;;;;;;7.53;1.85;;;4.20;1.00;;;;;;6170629;23;20257;-83
2023/02/26 08:50:11;;;;;;;6.68;1.42;;;4.30;1.00;;;;;;6141988;23;20234;-83
2023/02/26 08:52:38;;;;;;;5.90;1.30;;;4.70;1.00;;;;;;6167920;23;20273;-82
2023/02/26 08:55:08;;;;;;;6.45;1.23;;;5.90;1.00;;;;;;6143899;23;20262;-84
2023/02/26 08:57:35;;;;;;;6.45;1.20;;;6.80;1.00;;;;;;6169923;23;20206;-82
2023/02/26 09:00:04;;;;;;;6.15;1.20;;;7.80;1.00;;;;;;6170425;23;20219;-82
2023/02/26 09:02:31;;;;;;;6.33;1.17;;;9.30;1.00;;;;;;6166847;23;20684;-82
2023/02/26 09:04:58;;;;;;;7.00;3.33;;;10.70;1.00;;;;;;6168023;23;20395;-81
2023/02/26 09:07:25;;;;;;;7.20;1.80;;;12.00;1.00;;;;;;6165534;23;21161;-81
2023/02/26 09:09:52;;;;;;;5.70;1.03;;;12.90;1.00;;;;;;6165674;23;20445;-80
2023/02/26 09:12:22;;;;;;;6.50;1.37;;;13.80;1.00;;;;;;6165174;23;20435;-81
2023/02/26 09:14:49;;;;;;;5.03;1.03;;;14.70;1.00;;;;;;6168902;23;21189;-83
2023/02/26 09:17:16;;;;;;;5.33;1.33;;;15.20;1.00;;;;;;6140952;23;20530;-82
2023/02/26 09:19:43;;;;;;;6.30;1.63;;;16.10;1.00;;;;;;6167446;23;20487;-81
2023/02/26 09:22:10;;;;;;;5.40;1.40;;;16.90;1.00;;;;;;6163038;23;20434;-84
2023/02/26 09:24:40;;;;;;;6.73;1.20;;;17.10;1.00;;;;;;6167074;23;20506;-83
2023/02/26 09:27:09;;;;;;;5.47;1.20;;;17.50;1.00;;;;;;6168365;23;20423;-82
2023/02/26 09:29:37;;;;;;;6.43;1.40;;;17.70;1.00;;;;;;6164375;23;20574;-84
2023/02/26 09:32:07;;;;;;;5.80;1.20;;;18.10;1.00;;;;;;6166632;23;20434;-83
2023/02/26 09:34:36;;;;;;;5.00;1.30;;;18.00;1.00;;;;;;6141953;23;20423;-83
2023/02/26 09:37:05;;;;;;;6.00;1.07;;;18.30;1.00;;;;;;6168116;23;20939;-81
2023/02/26 09:39:36;;;;;;;7.47;2.60;;;18.30;1.00;;;;;;6163648;23;20425;-83
2023/02/26 09:42:13;;;;;;;6.00;1.43;;;18.00;1.00;;;;;;6166335;23;20869;-82
2023/02/26 09:44:44;;;;;;;7.17;1.57;;;17.50;1.00;;;;;;6159946;23;21753;-80
2023/02/26 09:47:18;;;;;;;5.23;1.17;;;17.40;1.00;;;;;;6156821;23;20446;-80
2023/02/26 09:49:52;;;;;;;5.30;1.40;;;17.30;1.00;;;;;;6158437;23;20521;-79
2023/02/26 09:52:26;;;;;;;4.80;1.00;;;16.50;1.00;;;;;;6159795;23;21271;-79
2023/02/26 09:54:56;;;;;;;6.20;2.00;;;15.20;1.00;;;;;;6135836;23;20511;-79
2023/02/26 09:57:30;;;;;;;6.13;1.67;;;13.80;1.00;;;;;;6158446;23;20411;-78
2023/02/26 10:00:00;;;;;;;6.17;1.27;;;12.30;1.00;;;;;;6159451;23;20439;-79
2023/02/26 10:02:38;;;;;;;6.90;1.10;;;11.40;1.00;;;;;;6154672;23;20435;-79
2023/02/26 10:05:18;;;;;;;5.80;1.77;;;10.80;1.00;;;;;;6136423;23;20396;-79
2023/02/26 10:07:56;;;;;;;6.20;1.30;;;10.40;1.00;;;;;;6148311;23;20387;-79
2023/02/26 10:10:32;;;;;;;6.10;1.93;;;10.80;1.00;;;;;;6159608;23;20423;-78
2023/02/26 10:13:00;;;;;;;5.20;1.30;;;11.00;1.00;;;;;;6160070;23;20426;-79
2023/02/26 10:15:34;;;;;;;46.27;37.60;;;11.30;1.00;;;;;;6165684;23;20403;-79
2023/02/26 10:18:09;;;;;;;9.00;4.13;;;12.40;1.00;;;;;;6167165;23;21202;-80
2023/02/26 10:20:45;;;;;;;8.50;3.20;;;12.90;1.00;;;;;;6165498;23;20427;-80
2023/02/26 10:23:19;;;;;;;10.13;2.30;;;13.50;1.00;;;;;;6168921;23;20927;-82
2023/02/26 10:25:55;;;;;;;6.90;1.67;;;14.30;1.00;;;;;;6169489;23;20419;-82
2023/02/26 10:28:42;;;;;;;5.67;1.40;;;13.90;1.00;;;;;;6166581;23;20442;-81
2023/02/26 10:31:18;;;;;;;5.00;1.00;;;13.50;1.00;;;;;;6167577;23;20497;-82
2023/02/26 10:33:53;;;;;;;5.40;1.10;;;13.20;1.00;;;;;;6169631;23;21270;-86
2023/02/26 10:36:25;;;;;;;7.00;1.60;;;13.70;1.00;;;;;;6168934;23;21223;-83
2023/02/26 10:39:01;;;;;;;5.97;1.40;;;15.10;1.00;;;;;;6136045;23;20484;-84
2023/02/26 10:41:31;;;;;;;5.40;1.20;;;15.80;1.00;;;;;;6164905;23;20443;-82
2023/02/26 10:44:07;;;;;;;6.10;1.37;;;15.20;1.00;;;;;;6164856;23;20440;-78
2023/02/26 10:46:45;;;;;;;6.50;1.20;;;13.90;1.00;;;;;;6162549;23;20418;-78
2023/02/26 10:49:37;;;;;;;8.80;1.50;;;12.80;1.00;;;;;;6162062;23;20473;-78
2023/02/26 10:52:13;;;;;;;7.20;1.30;;;12.00;1.00;;;;;;6149265;23;20441;-83
2023/02/26 10:54:48;;;;;;;8.27;1.53;;;12.10;1.00;;;;;;6165451;23;21241;-81
2023/02/26 10:57:25;;;;;;;8.43;1.40;;;12.10;1.00;;;;;;6168379;23;20715;-81
2023/02/26 10:59:52;;;;;;;5.50;0.80;;;12.30;1.00;;;;;;6170722;23;20421;-80
2023/02/26 11:02:37;;;;;;;6.20;1.53;;;13.00;1.00;;;;;;6164371;23;20506;-77
2023/02/26 11:05:07;;;;;;;5.33;1.10;;;14.30;1.00;;;;;;6167268;23;20404;-80
2023/02/26 11:07:37;;;;;;;8.10;0.97;;;15.80;1.00;;;;;;6168765;23;20401;-78
2023/02/26 11:10:12;;;;;;;6.00;1.40;;;16.40;1.00;;;;;;6142686;23;20438;-76
2023/02/26 11:12:40;;;;;;;5.37;0.97;;;16.80;1.00;;;;;;6162132;23;20418;-77
2023/02/26 11:15:14;;;;;;;5.57;1.07;;;17.30;1.00;;;;;;6163239;23;20448;-81
2023/02/26 11:17:45;;;;;;;5.00;1.10;;;17.20;1.00;;;;;;6164058;23;20450;-82
2023/02/26 11:20:30;;;;;;;7.10;1.10;;;17.70;1.00;;;;;;6167145;23;20422;-82
2023/02/26 11:23:01;;;;;;;6.80;1.60;;;17.60;1.00;;;;;;6168271;23;20518;-83
2023/02/26 11:25:30;;;;;;;5.10;1.10;;;16.40;1.00;;;;;;6167289;23;20405;-77
2023/02/26 11:28:01;;;;;;;5.10;1.10;;;14.70;1.00;;;;;;6164468;23;20507;-79
2023/02/26 11:30:34;;;;;;;12.40;2.27;;;13.30;1.00;;;;;;6162021;23;20444;-79
2023/02/26 11:33:16;;;;;;;6.70;1.20;;;12.50;1.00;;;;;;6124959;23;21113;-81
2023/02/26 11:35:44;;;;;;;5.13;1.00;;;11.70;1.00;;;;;;6161610;23;20451;-81
2023/02/26 11:38:18;;;;;;;6.80;1.00;;;10.80;1.00;;;;;;6162333;23;20462;-80
2023/02/26 11:40:51;;;;;;;6.40;1.27;;;10.30;1.00;;;;;;6162550;23;20896;-76
2023/02/26 11:43:21;;;;;;;6.47;1.27;;;12.20;1.00;;;;;;6158006;23;20838;-75
2023/02/26 11:45:53;;;;;;;6.00;1.60;;;15.70;1.00;;;;;;6159264;23;20462;-79
2023/02/26 11:48:24;;;;;;;5.97;1.40;;;18.10;1.00;;;;;;6156950;23;21173;-77
2023/02/26 11:50:56;;;;;;;6.90;1.30;;;18.80;1.00;;;;;;6156994;23;20423;-77
2023/02/26 11:53:34;;;;;;;10.70;1.60;;;17.70;1.00;;;;;;6156323;23;20423;-78
2023/02/26 11:56:04;;;;;;;7.93;1.43;;;18.30;1.00;;;;;;6161994;23;20518;-77
2023/02/26 11:58:39;;;;;;;5.87;1.23;;;18.00;1.00;;;;;;6159755;23;20423;-77
2023/02/26 12:01:12;;;;;;;7.13;1.33;;;16.10;1.00;;;;;;6158091;23;20444;-78
2023/02/26 12:03:44;;;;;;;9.33;2.13;;;14.50;1.00;;;;;;6161767;23;20463;-77
2023/02/26 12:06:17;;;;;;;4.80;1.10;;;13.90;1.00;;;;;;6160937;23;21192;-77
2023/02/26 12:08:44;;;;;;;6.70;1.57;;;13.40;1.00;;;;;;6160661;23;20423;-78
2023/02/26 12:11:27;;;;;;;8.10;2.17;;;12.50;1.00;;;;;;6159680;23;20835;-76
2023/02/26 12:14:07;;;;;;;5.13;1.23;;;11.60;1.00;;;;;;6160435;23;20929;-76
2023/02/26 12:16:43;;;;;;;5.27;1.40;;;11.30;1.00;;;;;;6158977;23;20430;-77
2023/02/26 12:19:21;;;;;;;6.60;1.27;;;11.70;1.00;;;;;;6159383;23;20441;-77
2023/02/26 12:22:06;;;;;;;7.40;1.70;;;12.00;1.00;;;;;;6157436;23;20497;-76
2023/02/26 12:24:53;;;;;;;12.00;3.60;;;12.30;1.00;;;;;;6159156;23;20404;-79
2023/02/26 12:27:33;;;;;;;8.10;2.17;;;13.40;1.00;;;;;;6132522;23;20435;-78
2023/02/26 12:30:24;;;;;;;6.60;1.07;;;16.30;1.00;;;;;;6160177;23;20430;-77
2023/02/26 12:33:08;;;;;;;5.50;1.50;;;19.20;1.00;;;;;;6132163;23;20430;-76
2023/02/26 12:35:47;;;;;;;6.67;1.53;;;20.90;1.00;;;;;;6158866;23;20433;-78
2023/02/26 12:38:21;;;;;;;7.07;1.17;;;22.70;1.00;;;;;;6158569;23;20435;-77
2023/02/26 12:41:24;;;;;;;7.83;1.40;;;23.80;1.00;;;;;;6159703;23;20828;-78
2023/02/26 12:43:53;;;;;;;6.20;1.53;;;23.30;1.00;;;;;;6160568;23;20421;-77
2023/02/26 12:46:34;;;;;;;6.30;1.57;;;22.70;1.00;;;;;;6158662;23;20893;-78
2023/02/26 12:49:39;;;;;;;6.03;1.13;;;22.30;1.00;;;;;;6134239;23;20431;-79
2023/02/26 12:52:34;;;;;;;6.60;1.60;;;21.10;1.00;;;;;;6158732;23;20460;-77
2023/02/26 12:55:17;;;;;;;7.17;2.00;;;18.40;1.00;;;;;;6160463;23;20419;-74
2023/02/26 12:57:54;;;;;;;5.93;1.37;;;16.30;1.00;;;;;;6158500;23;20469;-77
2023/02/26 13:00:38;;;;;;;7.20;2.40;;;14.20;1.00;;;;;;6160362;23;21248;-79
2023/02/26 13:03:38;;;;;;;6.40;1.50;;;13.30;1.00;;;;;;6159639;23;20416;-78
2023/02/26 13:06:39;;;;;;;5.90;1.93;;;12.50;1.00;;;;;;6160992;23;20507;-77
2023/02/26 13:09:18;;;;;;;9.00;2.23;;;12.80;1.00;;;;;;6160583;23;20419;-78
2023/02/26 13:11:56;;;;;;;8.30;1.30;;;13.30;1.00;;;;;;6158576;23;20424;-77
2023/02/26 13:14:38;;;;;;;5.77;1.60;;;15.00;1.00;;;;;;6117371;23;20460;-76
2023/02/26 13:17:13;;;;;;;5.87;1.60;;;16.00;1.00;;;;;;6161191;23;21046;-77
2023/02/26 13:19:47;;;;;;;9.93;1.67;;;15.50;1.00;;;;;;6156596;23;20439;-74
2023/02/26 13:22:20;;;;;;;7.93;2.10;;;14.90;1.00;;;;;;6132153;23;21046;-76
2023/02/26 13:24:55;;;;;;;6.80;2.30;;;14.20;1.00;;;;;;6159743;23;20427;-75
2023/02/26 13:27:27;;;;;;;5.80;1.60;;;13.50;1.00;;;;;;6157880;23;20483;-75